sensor_id;sensor_type;location;lat;lon;timestamp;pressure;altitude;pressure_sealevel;temperature;humidity
64139;BME280;50435;43.700;-79.318;2023-08-08T00:00:49;98789.38;;;20.37;75.80
64139;BME280;50435;43.700;-79.318;2023-08-08T00:03:16;98787.84;;;20.34;75.81
64139;BME280;50435;43.700;-79.318;2023-08-08T00:05:44;98789.77;;;20.03;75.79
64139;BME280;50435;43.700;-79.318;2023-08-08T00:08:11;98799.48;;;19.98;75.86
64139;BME280;50435;43.700;-79.318;2023-08-08T00:10:38;98808.67;;;20.22;75.88
64139;BME280;50435;43.700;-79.318;2023-08-08T00:13:06;98805.41;;;19.89;75.92
64139;BME280;50435;43.700;-79.318;2023-08-08T00:15:33;98805.05;;;20.32;75.99
64139;BME280;50435;43.700;-79.318;2023-08-08T00:18:00;98802.21;;;20.04;76.09
64139;BME280;50435;43.700;-79.318;2023-08-08T00:20:28;98805.26;;;20.20;76.23
64139;BME280;50435;43.700;-79.318;2023-08-08T00:22:55;98810.65;;;19.94;76.25
64139;BME280;50435;43.700;-79.318;2023-08-08T00:25:23;98814.32;;;19.91;76.32
64139;BME280;50435;43.700;-79.318;2023-08-08T00:27:50;98817.16;;;19.82;76.53
64139;BME280;50435;43.700;-79.318;2023-08-08T00:30:17;98819.74;;;19.98;76.66
64139;BME280;50435;43.700;-79.318;2023-08-08T00:32:45;98820.97;;;19.94;76.73
64139;BME280;50435;43.700;-79.318;2023-08-08T00:35:12;98823.21;;;19.42;76.72
64139;BME280;50435;43.700;-79.318;2023-08-08T00:37:40;98823.24;;;19.87;76.75
64139;BME280;50435;43.700;-79.318;2023-08-08T00:40:08;98816.81;;;19.80;76.67
64139;BME280;50435;43.700;-79.318;2023-08-08T00:42:36;98809.09;;;19.74;76.72
64139;BME280;50435;43.700;-79.318;2023-08-08T00:45:04;98805.55;;;19.69;76.85
64139;BME280;50435;43.700;-79.318;2023-08-08T00:47:32;98810.68;;;19.67;76.81
64139;BME280;50435;43.700;-79.318;2023-08-08T00:50:01;98803.85;;;19.63;76.85
64139;BME280;50435;43.700;-79.318;2023-08-08T00:52:29;98800.29;;;19.58;76.92
64139;BME280;50435;43.700;-79.318;2023-08-08T00:54:57;98799.38;;;19.55;77.02
64139;BME280;50435;43.700;-79.318;2023-08-08T00:57:25;98800.52;;;19.52;77.07
64139;BME280;50435;43.700;-79.318;2023-08-08T00:59:53;98800.53;;;19.73;77.23
64139;BME280;50435;43.700;-79.318;2023-08-08T01:02:20;98806.65;;;19.45;77.25
64139;BME280;50435;43.700;-79.318;2023-08-08T01:04:48;98807.43;;;19.42;77.34
64139;BME280;50435;43.700;-79.318;2023-08-08T01:07:23;98810.61;;;19.39;77.48
64139;BME280;50435;43.700;-79.318;2023-08-08T01:09:57;98812.06;;;19.33;77.56
64139;BME280;50435;43.700;-79.318;2023-08-08T01:12:26;98812.02;;;19.33;77.54
64139;BME280;50435;43.700;-79.318;2023-08-08T01:14:54;98808.76;;;19.28;77.61
64139;BME280;50435;43.700;-79.318;2023-08-08T01:17:23;98802.66;;;19.51;77.62
64139;BME280;50435;43.700;-79.318;2023-08-08T01:19:51;98800.30;;;19.18;77.71
64139;BME280;50435;43.700;-79.318;2023-08-08T01:22:24;98800.75;;;19.16;77.72
64139;BME280;50435;43.700;-79.318;2023-08-08T01:24:53;98800.25;;;19.12;77.82
64139;BME280;50435;43.700;-79.318;2023-08-08T01:27:22;98800.92;;;19.11;77.78
64139;BME280;50435;43.700;-79.318;2023-08-08T01:29:50;98804.82;;;19.06;77.90
64139;BME280;50435;43.700;-79.318;2023-08-08T01:32:17;98803.58;;;19.02;77.97
64139;BME280;50435;43.700;-79.318;2023-08-08T01:34:44;98800.72;;;19.50;77.93
64139;BME280;50435;43.700;-79.318;2023-08-08T01:37:29;98799.37;;;18.97;78.05
64139;BME280;50435;43.700;-79.318;2023-08-08T01:40:00;98796.14;;;18.94;78.15
64139;BME280;50435;43.700;-79.318;2023-08-08T01:42:29;98791.40;;;19.19;78.17
64139;BME280;50435;43.700;-79.318;2023-08-08T01:44:57;98790.10;;;19.14;78.31
64139;BME280;50435;43.700;-79.318;2023-08-08T01:47:26;98791.36;;;19.34;78.26
64139;BME280;50435;43.700;-79.318;2023-08-08T01:49:53;98789.15;;;19.09;78.38
64139;BME280;50435;43.700;-79.318;2023-08-08T01:52:20;98787.33;;;18.79;78.42
64139;BME280;50435;43.700;-79.318;2023-08-08T01:54:48;98791.42;;;19.27;78.47
64139;BME280;50435;43.700;-79.318;2023-08-08T01:57:15;98797.32;;;18.72;78.64
64139;BME280;50435;43.700;-79.318;2023-08-08T01:59:44;98801.30;;;19.18;78.72
64139;BME280;50435;43.700;-79.318;2023-08-08T02:02:11;98805.23;;;19.18;78.65
64139;BME280;50435;43.700;-79.318;2023-08-08T02:04:39;98809.74;;;19.16;78.69
64139;BME280;50435;43.700;-79.318;2023-08-08T02:07:06;98810.83;;;18.64;78.69
64139;BME280;50435;43.700;-79.318;2023-08-08T02:09:34;98806.20;;;18.90;78.66
64139;BME280;50435;43.700;-79.318;2023-08-08T02:12:02;98804.84;;;18.83;78.84
64139;BME280;50435;43.700;-79.318;2023-08-08T02:14:29;98804.36;;;19.07;78.68
64139;BME280;50435;43.700;-79.318;2023-08-08T02:16:56;98808.75;;;19.08;78.61
64139;BME280;50435;43.700;-79.318;2023-08-08T02:19:24;98811.37;;;18.56;78.71
64139;BME280;50435;43.700;-79.318;2023-08-08T02:21:51;98814.02;;;18.98;78.87
64139;BME280;50435;43.700;-79.318;2023-08-08T02:24:19;98813.71;;;18.78;78.81
64139;BME280;50435;43.700;-79.318;2023-08-08T02:26:47;98814.15;;;18.97;78.94
64139;BME280;50435;43.700;-79.318;2023-08-08T02:29:14;98813.96;;;18.45;79.02
64139;BME280;50435;43.700;-79.318;2023-08-08T02:31:42;98810.89;;;18.92;79.06
64139;BME280;50435;43.700;-79.318;2023-08-08T02:34:10;98812.97;;;18.90;79.09
64139;BME280;50435;43.700;-79.318;2023-08-08T02:36:38;98815.79;;;18.85;79.26
64139;BME280;50435;43.700;-79.318;2023-08-08T02:39:06;98814.37;;;18.80;79.38
64139;BME280;50435;43.700;-79.318;2023-08-08T02:41:33;98810.83;;;18.59;79.23
64139;BME280;50435;43.700;-79.318;2023-08-08T02:44:01;98806.31;;;18.25;79.36
64139;BME280;50435;43.700;-79.318;2023-08-08T02:46:28;98801.52;;;18.51;79.32
64139;BME280;50435;43.700;-79.318;2023-08-08T02:48:56;98802.46;;;18.72;79.34
64139;BME280;50435;43.700;-79.318;2023-08-08T02:51:23;98805.80;;;18.67;79.48
64139;BME280;50435;43.700;-79.318;2023-08-08T02:53:50;98809.15;;;18.63;79.61
64139;BME280;50435;43.700;-79.318;2023-08-08T02:56:18;98812.25;;;18.59;79.72
64139;BME280;50435;43.700;-79.318;2023-08-08T02:58:45;98813.13;;;18.55;79.74
64139;BME280;50435;43.700;-79.318;2023-08-08T03:01:13;98808.98;;;18.77;79.79
64139;BME280;50435;43.700;-79.318;2023-08-08T03:03:40;98811.44;;;18.47;79.94
64139;BME280;50435;43.700;-79.318;2023-08-08T03:06:08;98810.30;;;18.45;79.97
64139;BME280;50435;43.700;-79.318;2023-08-08T03:08:35;98809.83;;;18.40;79.99
64139;BME280;50435;43.700;-79.318;2023-08-08T03:11:03;98817.98;;;18.17;80.02
64139;BME280;50435;43.700;-79.318;2023-08-08T03:13:30;98825.55;;;18.13;80.09
64139;BME280;50435;43.700;-79.318;2023-08-08T03:15:57;98830.85;;;18.32;80.24
64139;BME280;50435;43.700;-79.318;2023-08-08T03:18:25;98836.60;;;18.26;80.28
64139;BME280;50435;43.700;-79.318;2023-08-08T03:20:53;98841.85;;;18.22;80.41
64139;BME280;50435;43.700;-79.318;2023-08-08T03:23:21;98843.44;;;18.24;80.33
64139;BME280;50435;43.700;-79.318;2023-08-08T03:25:48;98844.35;;;18.45;80.25
64139;BME280;50435;43.700;-79.318;2023-08-08T03:28:16;98842.62;;;18.23;80.15
64139;BME280;50435;43.700;-79.318;2023-08-08T03:30:43;98840.39;;;18.22;80.14
64139;BME280;50435;43.700;-79.318;2023-08-08T03:33:11;98843.52;;;18.43;80.16
64139;BME280;50435;43.700;-79.318;2023-08-08T03:35:38;98847.69;;;18.45;80.07
64139;BME280;50435;43.700;-79.318;2023-08-08T03:38:06;98849.10;;;18.22;80.02
64139;BME280;50435;43.700;-79.318;2023-08-08T03:40:34;98847.57;;;18.21;80.05
64139;BME280;50435;43.700;-79.318;2023-08-08T03:43:01;98848.58;;;18.23;80.01
64139;BME280;50435;43.700;-79.318;2023-08-08T03:45:29;98848.80;;;18.21;80.05
64139;BME280;50435;43.700;-79.318;2023-08-08T03:47:56;98841.65;;;18.20;80.11
64139;BME280;50435;43.700;-79.318;2023-08-08T03:50:24;98837.87;;;18.41;80.06
64139;BME280;50435;43.700;-79.318;2023-08-08T03:52:51;98835.65;;;18.67;80.06
64139;BME280;50435;43.700;-79.318;2023-08-08T03:55:19;98835.85;;;18.38;80.17
64139;BME280;50435;43.700;-79.318;2023-08-08T03:57:47;98836.18;;;18.14;80.22
64139;BME280;50435;43.700;-79.318;2023-08-08T04:00:14;98840.00;;;18.09;80.41
64139;BME280;50435;43.700;-79.318;2023-08-08T04:02:41;98839.41;;;18.10;80.39
64139;BME280;50435;43.700;-79.318;2023-08-08T04:05:09;98839.92;;;18.03;80.62
64139;BME280;50435;43.700;-79.318;2023-08-08T04:07:36;98841.10;;;18.05;80.53
64139;BME280;50435;43.700;-79.318;2023-08-08T04:10:05;98841.18;;;18.03;80.56
64139;BME280;50435;43.700;-79.318;2023-08-08T04:12:32;98840.57;;;18.25;80.53
64139;BME280;50435;43.700;-79.318;2023-08-08T04:15:00;98841.60;;;18.23;80.60
64139;BME280;50435;43.700;-79.318;2023-08-08T04:17:27;98838.46;;;18.22;80.63
64139;BME280;50435;43.700;-79.318;2023-08-08T04:19:55;98841.84;;;18.00;80.55
64139;BME280;50435;43.700;-79.318;2023-08-08T04:22:22;98838.26;;;17.98;80.64
64139;BME280;50435;43.700;-79.318;2023-08-08T04:24:50;98837.73;;;17.96;80.66
64139;BME280;50435;43.700;-79.318;2023-08-08T04:27:17;98838.99;;;17.97;80.54
64139;BME280;50435;43.700;-79.318;2023-08-08T04:29:45;98836.12;;;17.96;80.63
64139;BME280;50435;43.700;-79.318;2023-08-08T04:32:12;98831.33;;;18.20;80.55
64139;BME280;50435;43.700;-79.318;2023-08-08T04:34:40;98829.34;;;18.20;80.49
64139;BME280;50435;43.700;-79.318;2023-08-08T04:37:07;98823.92;;;17.95;80.62
64139;BME280;50435;43.700;-79.318;2023-08-08T04:39:35;98826.47;;;18.15;80.68
64139;BME280;50435;43.700;-79.318;2023-08-08T04:42:03;98823.87;;;17.66;80.78
64139;BME280;50435;43.700;-79.318;2023-08-08T04:44:31;98819.84;;;17.87;80.80
64139;BME280;50435;43.700;-79.318;2023-08-08T04:46:58;98817.77;;;18.32;80.92
64139;BME280;50435;43.700;-79.318;2023-08-08T04:49:26;98817.40;;;18.34;80.84
64139;BME280;50435;43.700;-79.318;2023-08-08T04:51:53;98820.68;;;18.04;80.90
64139;BME280;50435;43.700;-79.318;2023-08-08T04:54:21;98817.37;;;17.78;81.03
64139;BME280;50435;43.700;-79.318;2023-08-08T04:56:48;98816.15;;;17.79;80.92
64139;BME280;50435;43.700;-79.318;2023-08-08T04:59:16;98817.57;;;18.03;80.86
64139;BME280;50435;43.700;-79.318;2023-08-08T05:01:43;98815.57;;;17.81;80.80
64139;BME280;50435;43.700;-79.318;2023-08-08T05:04:11;98818.70;;;17.82;80.80
64139;BME280;50435;43.700;-79.318;2023-08-08T05:06:38;98815.04;;;18.01;80.80
64139;BME280;50435;43.700;-79.318;2023-08-08T05:09:06;98818.21;;;17.77;80.88
64139;BME280;50435;43.700;-79.318;2023-08-08T05:11:33;98810.24;;;18.01;80.80
64139;BME280;50435;43.700;-79.318;2023-08-08T05:14:01;98813.76;;;17.80;80.78
64139;BME280;50435;43.700;-79.318;2023-08-08T05:16:28;98816.63;;;18.28;80.82
64139;BME280;50435;43.700;-79.318;2023-08-08T05:18:56;98811.79;;;17.97;80.88
64139;BME280;50435;43.700;-79.318;2023-08-08T05:21:23;98805.46;;;17.97;80.95
64139;BME280;50435;43.700;-79.318;2023-08-08T05:23:51;98802.19;;;17.99;80.80
64139;BME280;50435;43.700;-79.318;2023-08-08T05:26:18;98806.40;;;17.75;80.85
64139;BME280;50435;43.700;-79.318;2023-08-08T05:28:46;98809.01;;;18.00;80.79
64139;BME280;50435;43.700;-79.318;2023-08-08T05:31:13;98810.89;;;17.78;80.73
64139;BME280;50435;43.700;-79.318;2023-08-08T05:33:41;98809.80;;;18.25;80.78
64139;BME280;50435;43.700;-79.318;2023-08-08T05:36:08;98809.49;;;17.97;80.87
64139;BME280;50435;43.700;-79.318;2023-08-08T05:38:36;98809.81;;;17.98;80.80
64139;BME280;50435;43.700;-79.318;2023-08-08T05:41:03;98807.69;;;17.56;80.73
64139;BME280;50435;43.700;-79.318;2023-08-08T05:43:32;98806.55;;;18.28;80.69
64139;BME280;50435;43.700;-79.318;2023-08-08T05:45:59;98812.65;;;17.26;80.82
64139;BME280;50435;43.700;-79.318;2023-08-08T05:48:27;98822.13;;;17.95;81.11
64139;BME280;50435;43.700;-79.318;2023-08-08T05:50:54;98821.98;;;17.93;81.36
64139;BME280;50435;43.700;-79.318;2023-08-08T05:53:22;98826.52;;;17.92;81.57
64139;BME280;50435;43.700;-79.318;2023-08-08T05:55:49;98835.05;;;17.86;81.98
64139;BME280;50435;43.700;-79.318;2023-08-08T05:58:17;98847.60;;;17.82;82.31
64139;BME280;50435;43.700;-79.318;2023-08-08T06:00:44;98851.19;;;17.79;82.44
64139;BME280;50435;43.700;-79.318;2023-08-08T06:03:12;98849.89;;;17.76;82.51
64139;BME280;50435;43.700;-79.318;2023-08-08T06:05:40;98853.42;;;17.97;82.75
64139;BME280;50435;43.700;-79.318;2023-08-08T06:08:07;98853.62;;;17.66;82.74
64139;BME280;50435;43.700;-79.318;2023-08-08T06:10:34;98856.97;;;17.85;82.98
64139;BME280;50435;43.700;-79.318;2023-08-08T06:13:02;98862.77;;;17.32;83.09
64139;BME280;50435;43.700;-79.318;2023-08-08T06:15:29;98866.05;;;17.51;83.11
64139;BME280;50435;43.700;-79.318;2023-08-08T06:17:57;98860.92;;;17.74;83.08
64139;BME280;50435;43.700;-79.318;2023-08-08T06:20:24;98863.30;;;17.71;83.21
64139;BME280;50435;43.700;-79.318;2023-08-08T06:22:52;98859.39;;;17.70;83.22
64139;BME280;50435;43.700;-79.318;2023-08-08T06:25:19;98857.97;;;17.37;83.33
64139;BME280;50435;43.700;-79.318;2023-08-08T06:27:47;98861.63;;;17.60;83.25
64139;BME280;50435;43.700;-79.318;2023-08-08T06:30:15;98863.64;;;17.58;83.37
64139;BME280;50435;43.700;-79.318;2023-08-08T06:32:42;98870.77;;;17.54;83.37
64139;BME280;50435;43.700;-79.318;2023-08-08T06:35:10;98866.22;;;17.49;83.42
64139;BME280;50435;43.700;-79.318;2023-08-08T06:37:38;98866.53;;;17.21;83.30
64139;BME280;50435;43.700;-79.318;2023-08-08T06:40:06;98857.36;;;17.15;83.42
64139;BME280;50435;43.700;-79.318;2023-08-08T06:42:34;98863.13;;;17.39;83.42
64139;BME280;50435;43.700;-79.318;2023-08-08T06:45:02;98862.32;;;17.10;83.42
64139;BME280;50435;43.700;-79.318;2023-08-08T06:47:29;98864.40;;;17.35;83.36
64139;BME280;50435;43.700;-79.318;2023-08-08T06:49:57;98858.40;;;17.79;83.29
64139;BME280;50435;43.700;-79.318;2023-08-08T06:52:24;98860.02;;;17.29;83.45
64139;BME280;50435;43.700;-79.318;2023-08-08T06:54:52;98856.74;;;17.27;83.44
64139;BME280;50435;43.700;-79.318;2023-08-08T06:57:19;98854.57;;;16.97;83.34
64139;BME280;50435;43.700;-79.318;2023-08-08T06:59:47;98854.24;;;17.20;83.37
64139;BME280;50435;43.700;-79.318;2023-08-08T07:02:14;98853.15;;;17.20;83.39
64139;BME280;50435;43.700;-79.318;2023-08-08T07:04:42;98853.81;;;17.19;83.40
64139;BME280;50435;43.700;-79.318;2023-08-08T07:07:09;98853.66;;;16.89;83.24
64139;BME280;50435;43.700;-79.318;2023-08-08T07:09:37;98852.41;;;17.32;83.30
64139;BME280;50435;43.700;-79.318;2023-08-08T07:12:05;98853.02;;;17.27;83.40
64139;BME280;50435;43.700;-79.318;2023-08-08T07:14:33;98851.86;;;16.78;83.45
64139;BME280;50435;43.700;-79.318;2023-08-08T07:17:00;98849.07;;;16.34;83.12
64139;BME280;50435;43.700;-79.318;2023-08-08T07:19:28;98850.95;;;17.02;83.18
64139;BME280;50435;43.700;-79.318;2023-08-08T07:21:55;98844.91;;;16.98;83.09
64139;BME280;50435;43.700;-79.318;2023-08-08T07:24:23;98849.70;;;16.96;83.22
64139;BME280;50435;43.700;-79.318;2023-08-08T07:26:50;98847.82;;;16.92;83.14
64139;BME280;50435;43.700;-79.318;2023-08-08T07:29:18;98852.40;;;17.15;83.09
64139;BME280;50435;43.700;-79.318;2023-08-08T07:31:45;98846.64;;;16.91;83.03
64139;BME280;50435;43.700;-79.318;2023-08-08T07:34:13;98849.65;;;16.88;83.17
64139;BME280;50435;43.700;-79.318;2023-08-08T07:36:40;98846.38;;;16.86;82.88
64139;BME280;50435;43.700;-79.318;2023-08-08T07:39:08;98850.06;;;16.83;83.01
64139;BME280;50435;43.700;-79.318;2023-08-08T07:41:35;98855.13;;;16.83;82.70
64139;BME280;50435;43.700;-79.318;2023-08-08T07:44:04;98851.26;;;16.82;82.69
64139;BME280;50435;43.700;-79.318;2023-08-08T07:46:32;98849.12;;;16.79;82.68
64139;BME280;50435;43.700;-79.318;2023-08-08T07:49:00;98851.51;;;16.30;82.64
64139;BME280;50435;43.700;-79.318;2023-08-08T07:51:27;98851.15;;;16.76;82.57
64139;BME280;50435;43.700;-79.318;2023-08-08T07:53:54;98851.78;;;16.96;82.49
64139;BME280;50435;43.700;-79.318;2023-08-08T07:56:22;98854.37;;;16.95;82.49
64139;BME280;50435;43.700;-79.318;2023-08-08T07:58:49;98856.93;;;16.75;82.44
64139;BME280;50435;43.700;-79.318;2023-08-08T08:01:17;98868.37;;;16.69;82.63
64139;BME280;50435;43.700;-79.318;2023-08-08T08:03:45;98862.70;;;16.68;82.39
64139;BME280;50435;43.700;-79.318;2023-08-08T08:06:12;98871.46;;;16.86;82.22
64139;BME280;50435;43.700;-79.318;2023-08-08T08:08:40;98871.83;;;16.86;82.06
64139;BME280;50435;43.700;-79.318;2023-08-08T08:11:07;98877.61;;;16.64;82.23
64139;BME280;50435;43.700;-79.318;2023-08-08T08:13:35;98874.05;;;16.61;82.01
64139;BME280;50435;43.700;-79.318;2023-08-08T08:16:02;98869.39;;;16.58;82.16
64139;BME280;50435;43.700;-79.318;2023-08-08T08:18:30;98859.89;;;16.57;82.14
64139;BME280;50435;43.700;-79.318;2023-08-08T08:20:57;98871.12;;;16.80;82.03
64139;BME280;50435;43.700;-79.318;2023-08-08T08:23:24;98868.72;;;16.80;82.07
64139;BME280;50435;43.700;-79.318;2023-08-08T08:25:52;98871.28;;;16.78;82.01
64139;BME280;50435;43.700;-79.318;2023-08-08T08:28:20;98874.80;;;16.53;82.09
64139;BME280;50435;43.700;-79.318;2023-08-08T08:30:47;98872.04;;;16.97;82.07
64139;BME280;50435;43.700;-79.318;2023-08-08T08:33:15;98872.74;;;16.94;82.06
64139;BME280;50435;43.700;-79.318;2023-08-08T08:35:42;98874.71;;;16.64;82.11
64139;BME280;50435;43.700;-79.318;2023-08-08T08:38:10;98878.33;;;16.93;81.97
64139;BME280;50435;43.700;-79.318;2023-08-08T08:40:40;98883.99;;;16.42;82.09
64139;BME280;50435;43.700;-79.318;2023-08-08T08:43:09;98879.18;;;16.39;81.94
64139;BME280;50435;43.700;-79.318;2023-08-08T08:45:38;98879.72;;;16.87;82.07
64139;BME280;50435;43.700;-79.318;2023-08-08T08:48:09;98879.07;;;16.59;81.98
64139;BME280;50435;43.700;-79.318;2023-08-08T08:50:38;98881.31;;;16.54;81.72
64139;BME280;50435;43.700;-79.318;2023-08-08T08:53:07;98885.17;;;16.34;81.87
64139;BME280;50435;43.700;-79.318;2023-08-08T08:55:34;98890.96;;;16.54;81.81
64139;BME280;50435;43.700;-79.318;2023-08-08T08:58:03;98891.72;;;16.30;81.95
64139;BME280;50435;43.700;-79.318;2023-08-08T09:00:31;98892.51;;;16.78;81.78
64139;BME280;50435;43.700;-79.318;2023-08-08T09:02:59;98892.10;;;16.30;81.66
64139;BME280;50435;43.700;-79.318;2023-08-08T09:05:27;98898.27;;;16.79;81.80
64139;BME280;50435;43.700;-79.318;2023-08-08T09:07:55;98896.73;;;16.27;81.76
64139;BME280;50435;43.700;-79.318;2023-08-08T09:10:24;98895.62;;;16.75;81.66
64139;BME280;50435;43.700;-79.318;2023-08-08T09:12:53;98894.45;;;16.73;81.84
64139;BME280;50435;43.700;-79.318;2023-08-08T09:15:20;98894.61;;;16.47;81.80
64139;BME280;50435;43.700;-79.318;2023-08-08T09:17:47;98893.96;;;16.72;81.74
64139;BME280;50435;43.700;-79.318;2023-08-08T09:20:15;98900.00;;;16.42;81.85
64139;BME280;50435;43.700;-79.318;2023-08-08T09:22:44;98896.33;;;16.71;81.55
64139;BME280;50435;43.700;-79.318;2023-08-08T09:25:11;98899.49;;;16.42;81.74
64139;BME280;50435;43.700;-79.318;2023-08-08T09:27:41;98904.08;;;16.42;81.82
64139;BME280;50435;43.700;-79.318;2023-08-08T09:30:10;98902.78;;;16.40;81.88
64139;BME280;50435;43.700;-79.318;2023-08-08T09:32:38;98910.64;;;16.40;81.84
64139;BME280;50435;43.700;-79.318;2023-08-08T09:35:06;98915.32;;;16.16;81.85
64139;BME280;50435;43.700;-79.318;2023-08-08T09:37:34;98917.42;;;16.34;82.08
64139;BME280;50435;43.700;-79.318;2023-08-08T09:40:04;98920.18;;;16.10;82.02
64139;BME280;50435;43.700;-79.318;2023-08-08T09:42:32;98923.01;;;16.58;82.10
64139;BME280;50435;43.700;-79.318;2023-08-08T09:45:00;98922.44;;;16.07;82.06
64139;BME280;50435;43.700;-79.318;2023-08-08T09:47:27;98922.71;;;16.28;82.13
64139;BME280;50435;43.700;-79.318;2023-08-08T09:49:55;98919.63;;;16.55;82.17
64139;BME280;50435;43.700;-79.318;2023-08-08T09:52:24;98924.00;;;16.29;82.04
64139;BME280;50435;43.700;-79.318;2023-08-08T09:54:52;98920.18;;;16.50;82.21
64139;BME280;50435;43.700;-79.318;2023-08-08T09:57:20;98927.03;;;16.50;82.21
64139;BME280;50435;43.700;-79.318;2023-08-08T09:59:49;98928.10;;;16.48;82.20
64139;BME280;50435;43.700;-79.318;2023-08-08T10:02:17;98936.52;;;16.45;82.15
64139;BME280;50435;43.700;-79.318;2023-08-08T10:04:45;98936.18;;;16.65;82.35
64139;BME280;50435;43.700;-79.318;2023-08-08T10:07:12;98945.57;;;16.15;82.27
64139;BME280;50435;43.700;-79.318;2023-08-08T10:09:41;98946.06;;;16.43;82.18
64139;BME280;50435;43.700;-79.318;2023-08-08T10:12:08;98948.90;;;16.41;82.33
64139;BME280;50435;43.700;-79.318;2023-08-08T10:14:37;98951.45;;;16.40;82.26
64139;BME280;50435;43.700;-79.318;2023-08-08T10:17:05;98959.65;;;15.90;82.27
64139;BME280;50435;43.700;-79.318;2023-08-08T10:19:32;98954.96;;;16.36;82.29
64139;BME280;50435;43.700;-79.318;2023-08-08T10:22:03;98962.14;;;15.87;82.42
64139;BME280;50435;43.700;-79.318;2023-08-08T10:24:33;98958.30;;;16.32;82.52
64139;BME280;50435;43.700;-79.318;2023-08-08T10:27:02;98957.41;;;15.85;82.28
64139;BME280;50435;43.700;-79.318;2023-08-08T10:29:32;98962.51;;;16.08;82.35
64139;BME280;50435;43.700;-79.318;2023-08-08T10:32:01;98966.03;;;15.84;82.42
64139;BME280;50435;43.700;-79.318;2023-08-08T10:34:37;98972.07;;;16.31;82.54
64139;BME280;50435;43.700;-79.318;2023-08-08T10:37:08;98968.25;;;16.02;82.44
64139;BME280;50435;43.700;-79.318;2023-08-08T10:39:36;98967.75;;;16.25;82.54
64139;BME280;50435;43.700;-79.318;2023-08-08T10:42:04;98967.32;;;16.26;82.38
64139;BME280;50435;43.700;-79.318;2023-08-08T10:44:41;98969.52;;;16.25;82.43
64139;BME280;50435;43.700;-79.318;2023-08-08T10:47:08;98970.74;;;16.26;82.32
64139;BME280;50435;43.700;-79.318;2023-08-08T10:49:38;98979.71;;;16.23;82.42
64139;BME280;50435;43.700;-79.318;2023-08-08T10:52:06;98988.63;;;16.22;82.34
64139;BME280;50435;43.700;-79.318;2023-08-08T10:54:34;98992.69;;;16.24;82.39
64139;BME280;50435;43.700;-79.318;2023-08-08T10:57:02;98993.68;;;15.72;82.46
64139;BME280;50435;43.700;-79.318;2023-08-08T10:59:37;98997.87;;;16.23;82.44
64139;BME280;50435;43.700;-79.318;2023-08-08T11:02:05;98997.15;;;15.92;82.49
64139;BME280;50435;43.700;-79.318;2023-08-08T11:04:33;98995.98;;;16.18;82.55
64139;BME280;50435;43.700;-79.318;2023-08-08T11:07:00;99001.96;;;15.71;82.41
64139;BME280;50435;43.700;-79.318;2023-08-08T11:09:28;99000.89;;;16.20;82.38
64139;BME280;50435;43.700;-79.318;2023-08-08T11:11:56;99003.64;;;16.19;82.59
64139;BME280;50435;43.700;-79.318;2023-08-08T11:14:23;99008.86;;;16.16;82.70
64139;BME280;50435;43.700;-79.318;2023-08-08T11:16:52;99007.33;;;16.15;82.77
64139;BME280;50435;43.700;-79.318;2023-08-08T11:19:19;99007.98;;;16.13;82.80
64139;BME280;50435;43.700;-79.318;2023-08-08T11:21:47;99012.38;;;16.13;82.69
64139;BME280;50435;43.700;-79.318;2023-08-08T11:24:15;99012.86;;;16.14;82.70
64139;BME280;50435;43.700;-79.318;2023-08-08T11:26:44;99018.25;;;16.37;82.83
64139;BME280;50435;43.700;-79.318;2023-08-08T11:29:11;99019.47;;;16.09;82.89
64139;BME280;50435;43.700;-79.318;2023-08-08T11:31:40;99023.01;;;16.13;82.87
64139;BME280;50435;43.700;-79.318;2023-08-08T11:34:08;99022.54;;;16.12;82.89
64139;BME280;50435;43.700;-79.318;2023-08-08T11:36:36;99023.38;;;16.11;82.93
64139;BME280;50435;43.700;-79.318;2023-08-08T11:39:05;99022.87;;;16.10;82.85
64139;BME280;50435;43.700;-79.318;2023-08-08T11:41:35;99023.91;;;16.11;82.89
64139;BME280;50435;43.700;-79.318;2023-08-08T11:44:03;99027.86;;;15.62;82.89
64139;BME280;50435;43.700;-79.318;2023-08-08T11:46:31;99036.08;;;16.11;82.97
64139;BME280;50435;43.700;-79.318;2023-08-08T11:49:03;99033.32;;;16.09;82.87
64139;BME280;50435;43.700;-79.318;2023-08-08T11:51:32;99047.62;;;16.10;83.06
64139;BME280;50435;43.700;-79.318;2023-08-08T11:54:03;99043.94;;;15.61;82.83
64139;BME280;50435;43.700;-79.318;2023-08-08T11:56:34;99053.63;;;16.08;82.96
64139;BME280;50435;43.700;-79.318;2023-08-08T11:59:02;99056.20;;;15.82;83.09
64139;BME280;50435;43.700;-79.318;2023-08-08T12:01:32;99053.78;;;16.10;82.87
64139;BME280;50435;43.700;-79.318;2023-08-08T12:04:05;99058.11;;;15.60;82.99
64139;BME280;50435;43.700;-79.318;2023-08-08T12:06:32;99058.52;;;16.12;82.89
64139;BME280;50435;43.700;-79.318;2023-08-08T12:09:02;99065.80;;;15.62;83.00
64139;BME280;50435;43.700;-79.318;2023-08-08T12:11:30;99070.40;;;16.14;82.91
64139;BME280;50435;43.700;-79.318;2023-08-08T12:14:00;99078.51;;;16.12;82.94
64139;BME280;50435;43.700;-79.318;2023-08-08T12:16:29;99080.86;;;16.08;83.18
64139;BME280;50435;43.700;-79.318;2023-08-08T12:18:56;99081.59;;;16.12;83.01
64139;BME280;50435;43.700;-79.318;2023-08-08T12:21:23;99083.84;;;16.12;82.97
64139;BME280;50435;43.700;-79.318;2023-08-08T12:23:50;99087.61;;;16.10;82.99
64139;BME280;50435;43.700;-79.318;2023-08-08T12:26:18;99097.05;;;16.06;83.16
64139;BME280;50435;43.700;-79.318;2023-08-08T12:28:45;99091.09;;;15.82;83.07
64139;BME280;50435;43.700;-79.318;2023-08-08T12:31:13;99104.45;;;15.82;83.05
64139;BME280;50435;43.700;-79.318;2023-08-08T12:33:40;99110.92;;;16.08;83.12
64139;BME280;50435;43.700;-79.318;2023-08-08T12:36:07;99108.88;;;16.09;83.01
64139;BME280;50435;43.700;-79.318;2023-08-08T12:38:34;99111.17;;;16.09;83.01
64139;BME280;50435;43.700;-79.318;2023-08-08T12:41:02;99112.26;;;16.07;83.28
64139;BME280;50435;43.700;-79.318;2023-08-08T12:43:30;99118.61;;;16.08;83.06